Time;durP1;ratioP1;P1;durP2;ratioP2;P2;SDS_P1;SDS_P2;PMS_P1;PMS_P2;Temp;Humidity;BMP_temperature;BMP_pressure;BME280_temperature;BME280_humidity;BME280_pressure;Samples;Min_cycle;Max_cycle;Signal;HPM_P1;HPM_P2
2022/05/05 00:01:18;;;;;;;10.90;9.17;;;;;;;9.65;100.00;95731.81;5047936;28;20197;-79
2022/05/05 00:03:44;;;;;;;9.77;8.77;;;;;;;9.64;100.00;95736.16;5047343;28;20203;-79
2022/05/05 00:06:09;;;;;;;10.00;9.00;;;;;;;9.61;100.00;95730.44;5031231;28;20214;-77
2022/05/05 00:08:34;;;;;;;10.90;9.90;;;;;;;9.48;100.00;95735.91;5031034;28;20182;-78
2022/05/05 00:16:28;;;;;;;9.93;9.03;;;;;;;9.47;100.00;95728.25;5031299;28;20178;-78
2022/05/05 00:18:53;;;;;;;9.70;8.50;;;;;;;9.46;100.00;95740.41;5027296;28;20186;-78
2022/05/05 00:21:18;;;;;;;9.27;8.37;;;;;;;9.39;100.00;95738.50;5028648;28;20183;-79
2022/05/05 00:23:44;;;;;;;9.33;8.53;;;;;;;9.36;100.00;95734.38;5026428;28;20187;-78
2022/05/05 00:26:09;;;;;;;9.37;8.47;;;;;;;9.44;100.00;95734.50;5011582;28;20777;-78
2022/05/05 00:28:34;;;;;;;9.13;8.23;;;;;;;9.42;100.00;95730.44;5013733;28;20186;-78
2022/05/05 00:31:00;;;;;;;8.67;7.87;;;;;;;9.44;100.00;95736.28;5013467;28;20197;-78
2022/05/05 00:33:25;;;;;;;10.10;9.20;;;;;;;9.46;100.00;95727.44;5047942;28;20185;-79
2022/05/05 00:35:50;;;;;;;9.20;8.30;;;;;;;9.42;100.00;95725.25;5049301;28;20198;-78
2022/05/05 00:38:16;;;;;;;9.53;8.40;;;;;;;9.43;100.00;95726.88;5033122;28;20233;-78
2022/05/05 00:40:43;;;;;;;10.20;9.13;;;;;;;9.36;100.00;95731.78;5049027;28;20438;-79
2022/05/05 00:43:09;;;;;;;11.50;9.40;;;;;;;9.41;100.00;95728.78;5032437;28;20193;-78
2022/05/05 00:45:34;;;;;;;8.97;8.13;;;;;;;9.40;100.00;95730.56;5047978;28;20201;-78
2022/05/05 00:48:07;;;;;;;9.33;8.43;;;;;;;9.43;100.00;95725.09;5047921;28;20202;-78
2022/05/05 00:50:34;;;;;;;11.17;10.00;;;;;;;9.42;100.00;95728.66;5047994;28;20192;-78
2022/05/05 00:52:59;;;;;;;10.40;9.40;;;;;;;9.43;100.00;95729.47;5046446;28;20186;-79
2022/05/05 00:55:24;;;;;;;9.43;8.57;;;;;;;9.46;100.00;95730.03;5029989;28;20223;-78
2022/05/05 00:57:50;;;;;;;10.13;9.13;;;;;;;9.45;100.00;95725.78;5047760;28;20643;-78
2022/05/05 01:00:15;;;;;;;10.73;9.67;;;;;;;9.39;100.00;95722.94;5048092;28;20154;-78
2022/05/05 01:02:41;;;;;;;10.33;9.30;;;;;;;9.38;100.00;95723.91;5047594;28;20182;-78
2022/05/05 01:05:06;;;;;;;9.60;8.60;;;;;;;9.34;100.00;95723.31;5030172;28;20202;-78
2022/05/05 01:07:33;;;;;;;10.37;9.33;;;;;;;9.28;100.00;95723.88;5030274;28;20204;-79
2022/05/05 01:09:58;;;;;;;10.20;9.30;;;;;;;9.23;100.00;95726.88;5047263;28;20212;-78
2022/05/05 01:12:29;;;;;;;10.37;8.77;;;;;;;9.20;100.00;95719.38;5047436;28;20639;-79
2022/05/05 01:14:54;;;;;;;10.03;9.13;;;;;;;9.19;100.00;95719.47;5030156;28;20202;-80
2022/05/05 01:17:21;;;;;;;10.47;9.10;;;;;;;9.17;100.00;95717.03;5046538;28;20204;-78
2022/05/05 01:19:47;;;;;;;9.90;8.90;;;;;;;9.13;100.00;95717.44;5047253;28;20178;-78
2022/05/05 01:22:12;;;;;;;10.10;9.10;;;;;;;9.13;100.00;95720.03;5047680;28;20173;-78
2022/05/05 01:30:06;;;;;;;9.60;8.70;;;;;;;9.15;100.00;95734.50;5029441;28;20188;-78
2022/05/05 01:32:32;;;;;;;11.53;9.50;;;;;;;9.14;100.00;95730.28;5045260;28;20182;-79
2022/05/05 01:34:58;;;;;;;9.47;8.67;;;;;;;9.12;100.00;95736.53;5025712;28;20615;-79
2022/05/05 01:37:23;;;;;;;9.67;8.77;;;;;;;9.04;100.00;95737.22;5027139;28;20186;-77
2022/05/05 01:39:48;;;;;;;9.47;8.57;;;;;;;8.99;100.00;95735.00;5027085;28;20244;-78
2022/05/05 01:42:14;;;;;;;9.00;8.20;;;;;;;8.97;100.00;95747.28;5027767;28;20179;-79
2022/05/05 01:44:39;;;;;;;9.20;8.27;;;;;;;8.92;100.00;95739.09;5027632;28;20288;-79
2022/05/05 01:47:04;;;;;;;9.40;8.50;;;;;;;8.85;100.00;95744.94;5044646;28;20212;-78
2022/05/05 01:49:30;;;;;;;10.20;8.97;;;;;;;8.83;100.00;95741.63;5028621;28;20178;-78
2022/05/05 01:51:55;;;;;;;8.87;8.07;;;;;;;8.79;100.00;95741.91;5027092;28;20178;-78
2022/05/05 01:54:21;;;;;;;9.00;8.10;;;;;;;8.74;100.00;95741.47;5025497;28;20194;-79
2022/05/05 01:56:46;;;;;;;8.93;8.03;;;;;;;8.70;100.00;95734.94;5026525;28;20182;-78
2022/05/05 01:59:11;;;;;;;9.60;8.70;;;;;;;8.74;100.00;95736.28;5026274;28;20188;-79
2022/05/05 02:01:36;;;;;;;9.30;8.13;;;;;;;8.67;100.00;95736.97;5026786;28;20183;-78
2022/05/05 02:04:02;;;;;;;9.97;8.97;;;;;;;8.64;100.00;95745.81;5042665;28;20202;-79
2022/05/05 02:06:27;;;;;;;10.03;8.50;;;;;;;8.60;100.00;95736.69;5030247;28;20277;-78
2022/05/05 02:08:53;;;;;;;9.30;8.50;;;;;;;8.58;100.00;95741.16;5029933;28;20197;-79
2022/05/05 02:11:18;;;;;;;9.23;8.43;;;;;;;8.56;100.00;95744.81;5029664;28;20190;-79
2022/05/05 02:13:44;;;;;;;9.53;8.30;;;;;;;8.51;100.00;95734.88;5047110;28;20178;-78
2022/05/05 02:16:09;;;;;;;9.30;8.40;;;;;;;8.49;100.00;95739.38;5030837;28;20516;-79
2022/05/05 02:18:35;;;;;;;8.50;7.70;;;;;;;8.49;100.00;95744.53;5030092;28;20174;-78
2022/05/05 02:21:00;;;;;;;8.37;7.67;;;;;;;8.45;100.00;95749.13;5030033;28;20201;-79
2022/05/05 02:23:25;;;;;;;8.43;7.67;;;;;;;8.49;100.00;95741.94;5030788;28;20236;-78
2022/05/05 02:25:51;;;;;;;9.33;8.33;;;;;;;8.53;100.00;95740.72;5043488;28;20718;-79
2022/05/05 02:28:16;;;;;;;9.40;8.40;;;;;;;8.54;100.00;95736.38;5030451;28;20174;-77
2022/05/05 02:30:42;;;;;;;9.23;8.37;;;;;;;8.56;100.00;95743.03;5047328;28;20182;-80
2022/05/05 02:33:08;;;;;;;11.13;8.90;;;;;;;8.59;100.00;95745.41;4996154;28;20205;-79
2022/05/05 02:35:33;;;;;;;10.43;8.93;;;;;;;8.60;100.00;95746.22;5029409;28;20227;-79
2022/05/05 02:41:01;;;;;;;9.67;8.73;;;;;;;8.63;100.00;95735.59;4985789;28;20185;-79
2022/05/05 02:43:26;;;;;;;8.40;7.60;;;;;;;8.73;100.00;95739.84;4984957;28;20189;-78
2022/05/05 02:45:52;;;;;;;9.03;8.13;;;;;;;8.69;100.00;95742.84;4968811;28;20224;-79
2022/05/05 02:48:17;;;;;;;9.30;8.03;;;;;;;8.68;100.00;95739.44;4969768;28;20204;-79
2022/05/05 02:50:42;;;;;;;10.07;7.83;;;;;;;8.71;100.00;95739.16;4985498;28;20185;-78
2022/05/05 02:55:52;;;;;;;9.23;8.27;;;;;;;8.71;100.00;95736.56;4985134;28;20679;-78
2022/05/05 02:58:17;;;;;;;9.10;8.20;;;;;;;8.74;100.00;95741.47;4968843;28;20180;-79
2022/05/05 03:00:43;;;;;;;9.37;8.43;;;;;;;8.75;100.00;95737.16;4970328;28;20185;-79
2022/05/05 03:03:08;;;;;;;9.30;8.40;;;;;;;8.73;100.00;95737.25;4969034;28;20649;-80
2022/05/05 03:05:33;;;;;;;9.30;8.40;;;;;;;8.78;100.00;95736.88;4967280;28;20220;-76
2022/05/05 03:07:58;;;;;;;9.70;8.73;;;;;;;8.82;100.00;95742.59;4984007;28;20272;-80
2022/05/05 03:10:24;;;;;;;9.90;9.00;;;;;;;8.83;100.00;95736.47;4967520;28;20795;-78
2022/05/05 03:12:49;;;;;;;10.00;9.00;;;;;;;8.82;100.00;95738.22;4969206;28;20192;-79
2022/05/05 03:15:14;;;;;;;10.23;9.27;;;;;;;8.85;100.00;95738.00;4995568;28;20206;-80
2022/05/05 03:17:40;;;;;;;10.77;9.67;;;;;;;8.85;100.00;95732.00;5012830;28;20232;-80
2022/05/05 03:20:06;;;;;;;9.73;8.73;;;;;;;8.89;100.00;95738.53;5029035;28;20174;-78
2022/05/05 03:22:32;;;;;;;9.97;8.97;;;;;;;8.90;100.00;95732.41;5047084;28;20174;-79
2022/05/05 03:24:57;;;;;;;9.63;8.73;;;;;;;8.89;100.00;95730.75;5026669;28;20218;-80
2022/05/05 03:27:23;;;;;;;10.13;9.23;;;;;;;8.90;100.00;95729.81;5028599;28;20485;-79
2022/05/05 03:29:48;;;;;;;9.90;9.00;;;;;;;8.93;100.00;95725.19;5029593;28;20173;-79
2022/05/05 03:32:15;;;;;;;10.43;9.50;;;;;;;8.94;100.00;95726.00;5028705;28;20178;-78
2022/05/05 03:34:40;;;;;;;10.33;9.40;;;;;;;8.94;100.00;95723.44;5027154;28;20204;-78
2022/05/05 03:37:05;;;;;;;9.97;9.07;;;;;;;8.93;100.00;95725.19;5028567;28;20179;-78
2022/05/05 03:39:31;;;;;;;11.53;10.33;;;;;;;8.92;100.00;95735.66;5013041;28;20266;-79
2022/05/05 03:41:56;;;;;;;12.57;10.13;;;;;;;8.92;100.00;95728.75;5010271;28;20667;-78
2022/05/05 03:44:21;;;;;;;11.20;10.07;;;;;;;8.92;100.00;95733.91;5027526;28;20229;-79
2022/05/05 03:46:47;;;;;;;10.80;9.80;;;;;;;8.93;100.00;95730.38;5028179;28;20203;-78
2022/05/05 03:49:12;;;;;;;10.93;9.83;;;;;;;8.95;100.00;95733.66;5026617;28;20182;-78
2022/05/05 03:51:37;;;;;;;12.63;10.30;;;;;;;8.96;100.00;95742.22;5028026;28;20174;-79
2022/05/05 03:54:03;;;;;;;11.73;10.63;;;;;;;8.92;100.00;95748.63;5026735;28;20672;-78
2022/05/05 03:56:28;;;;;;;12.00;10.80;;;;;;;8.94;100.00;95757.09;5028083;28;20177;-78
2022/05/05 03:58:53;;;;;;;11.10;9.93;;;;;;;8.98;100.00;95755.88;5027397;28;20206;-78
2022/05/05 04:01:19;;;;;;;11.23;10.13;;;;;;;9.01;100.00;95758.19;5044911;28;20186;-78
2022/05/05 04:03:44;;;;;;;11.00;9.90;;;;;;;8.99;100.00;95760.09;5043460;28;20189;-80
2022/05/05 04:06:10;;;;;;;10.77;9.77;;;;;;;9.07;100.00;95749.88;5027766;28;20195;-78
2022/05/05 04:08:37;;;;;;;11.00;10.00;;;;;;;9.11;100.00;95753.88;5028461;28;20593;-80
2022/05/05 04:11:04;;;;;;;10.93;9.50;;;;;;;9.05;100.00;95757.78;5028823;28;20181;-79
2022/05/05 04:13:30;;;;;;;10.70;9.60;;;;;;;9.16;100.00;95762.03;5027479;28;20710;-78
2022/05/05 04:15:55;;;;;;;10.87;9.77;;;;;;;9.23;100.00;95762.34;5029081;28;20205;-76
2022/05/05 04:18:20;;;;;;;10.30;9.30;;;;;;;9.22;100.00;95756.34;5028264;28;20200;-78
2022/05/05 04:20:47;;;;;;;10.63;9.60;;;;;;;9.27;100.00;95761.09;5030476;28;20188;-77
2022/05/05 04:23:12;;;;;;;10.93;9.93;;;;;;;9.36;100.00;95766.31;5031260;28;20186;-78
2022/05/05 04:25:41;;;;;;;11.00;9.90;;;;;;;9.22;100.00;95771.06;5030943;28;20770;-78
2022/05/05 04:28:07;;;;;;;11.77;9.93;;;;;;;9.37;100.00;95767.13;5047418;28;20253;-78
2022/05/05 04:30:33;;;;;;;10.17;9.23;;;;;;;9.41;100.00;95776.28;5048786;28;20177;-78
2022/05/05 04:32:58;;;;;;;10.47;9.47;;;;;;;9.48;100.00;95773.97;5048588;28;20185;-77
2022/05/05 04:35:23;;;;;;;10.00;9.00;;;;;;;9.55;100.00;95772.47;5047251;28;20209;-79
2022/05/05 04:37:49;;;;;;;10.27;9.27;;;;;;;9.61;100.00;95777.09;5043630;28;20182;-79
2022/05/05 04:40:14;;;;;;;8.77;7.97;;;;;;;9.63;100.00;95776.03;5030846;28;20182;-78
2022/05/05 04:42:39;;;;;;;8.40;7.60;;;;;;;9.68;100.00;95775.59;5065637;28;20239;-79
2022/05/05 04:45:05;;;;;;;13.10;9.50;;;;;;;9.73;100.00;95783.81;5047793;28;20197;-78
2022/05/05 04:47:32;;;;;;;8.90;8.10;;;;;;;9.72;100.00;95786.50;5047546;28;20182;-79
2022/05/05 04:49:58;;;;;;;9.40;8.50;;;;;;;9.76;100.00;95786.13;5066922;28;20230;-79
2022/05/05 04:52:24;;;;;;;9.13;8.23;;;;;;;9.87;100.00;95787.75;5048059;28;20174;-77
2022/05/05 04:54:49;;;;;;;9.43;8.53;;;;;;;9.97;99.79;95788.56;5027360;28;20232;-78
2022/05/05 04:57:14;;;;;;;9.53;8.63;;;;;;;10.07;99.13;95793.72;5026092;28;20174;-79
2022/05/05 04:59:40;;;;;;;9.27;8.33;;;;;;;10.15;98.87;95792.09;5045624;28;20187;-78
2022/05/05 05:02:05;;;;;;;9.53;8.73;;;;;;;10.15;98.47;95797.28;5046760;28;20178;-79
2022/05/05 05:04:30;;;;;;;9.13;8.30;;;;;;;10.23;97.96;95804.41;5044426;28;20220;-77
2022/05/05 05:06:56;;;;;;;8.43;7.63;;;;;;;10.44;97.17;95807.66;5063811;28;20209;-77
2022/05/05 05:09:21;;;;;;;8.37;7.57;;;;;;;10.53;96.74;95799.97;5046384;28;20186;-77
2022/05/05 05:11:46;;;;;;;9.97;7.23;;;;;;;10.88;94.71;95805.31;5046515;28;20200;-78
2022/05/05 05:14:12;;;;;;;8.73;7.83;;;;;;;11.03;93.22;95796.06;5024364;28;20205;-79
2022/05/05 05:16:37;;;;;;;8.37;7.20;;;;;;;11.34;92.32;95806.19;5023586;28;20174;-81
2022/05/05 05:19:03;;;;;;;8.60;7.47;;;;;;;11.57;91.08;95804.81;5037654;28;20178;-78
2022/05/05 05:21:28;;;;;;;9.70;6.37;;;;;;;11.67;88.38;95811.75;5027968;28;20265;-79
2022/05/05 05:23:54;;;;;;;8.20;6.43;;;;;;;11.71;87.66;95813.06;5039631;28;20217;-77
2022/05/05 05:26:19;;;;;;;9.33;6.43;;;;;;;11.61;87.56;95816.56;5042378;28;20213;-77
2022/05/05 05:28:44;;;;;;;7.57;6.43;;;;;;;11.55;87.49;95811.94;5027480;28;20188;-77
2022/05/05 05:31:09;;;;;;;8.03;6.57;;;;;;;11.57;87.38;95823.03;5020072;28;20178;-76
2022/05/05 05:33:35;;;;;;;7.03;5.77;;;;;;;11.54;86.91;95815.50;5040354;28;20177;-78
2022/05/05 05:36:00;;;;;;;7.57;6.40;;;;;;;11.25;87.04;95817.47;5024406;28;20197;-80
2022/05/05 05:38:26;;;;;;;6.97;6.27;;;;;;;11.16;87.76;95818.34;5057309;28;20173;-78
2022/05/05 05:40:51;;;;;;;10.03;6.77;;;;;;;11.14;87.82;95817.66;5021335;28;20177;-78
2022/05/05 05:43:17;;;;;;;7.83;6.20;;;;;;;11.25;87.10;95825.25;5039264;28;20743;-78
2022/05/05 05:45:42;;;;;;;7.87;7.07;;;;;;;11.09;87.85;95819.88;5038675;28;20201;-80
2022/05/05 05:48:08;;;;;;;7.50;6.40;;;;;;;11.06;88.16;95827.00;5022399;28;20196;-79
2022/05/05 05:50:34;;;;;;;7.40;6.40;;;;;;;11.08;88.49;95821.66;5023159;28;20178;-77
2022/05/05 05:52:59;;;;;;;6.70;6.10;;;;;;;11.21;88.17;95829.09;5041784;28;20192;-78
2022/05/05 05:55:25;;;;;;;7.97;6.20;;;;;;;11.35;87.57;95828.63;5039435;28;20189;-78
2022/05/05 05:57:51;;;;;;;11.07;6.67;;;;;;;11.31;87.96;95837.69;5024551;28;20239;-78
2022/05/05 06:00:16;;;;;;;6.80;6.10;;;;;;;11.33;88.20;95839.19;5041895;28;20178;-79
2022/05/05 06:05:26;;;;;;;7.77;6.70;;;;;;;11.56;86.99;95836.97;5045273;28;20216;-78
2022/05/05 06:07:52;;;;;;;7.17;6.33;;;;;;;11.50;87.31;95837.56;5040630;28;20181;-77
2022/05/05 06:10:18;;;;;;;7.33;6.27;;;;;;;11.42;87.27;95839.28;5024646;28;20232;-78
2022/05/05 06:12:43;;;;;;;6.77;6.07;;;;;;;11.41;87.43;95837.63;5022648;28;20181;-78
2022/05/05 06:15:09;;;;;;;7.40;6.63;;;;;;;11.47;87.06;95845.66;5039944;28;20206;-78
2022/05/05 06:17:35;;;;;;;6.77;6.10;;;;;;;11.42;87.16;95847.88;5039965;28;20579;-76
2022/05/05 06:20:00;;;;;;;7.30;6.60;;;;;;;11.31;87.43;95850.69;5040394;28;20178;-78
2022/05/05 06:22:25;;;;;;;9.13;6.70;;;;;;;11.32;88.16;95849.72;5040057;28;20190;-77
2022/05/05 06:24:51;;;;;;;8.17;6.60;;;;;;;11.16;88.24;95849.53;5039481;28;20734;-77
2022/05/05 06:27:16;;;;;;;8.20;6.63;;;;;;;11.25;88.26;95851.25;5021088;28;20209;-77
2022/05/05 06:29:41;;;;;;;8.50;6.50;;;;;;;11.17;89.08;95856.34;5021554;28;20182;-78
2022/05/05 06:32:07;;;;;;;8.23;6.40;;;;;;;11.09;89.68;95864.88;5040639;28;20186;-79
2022/05/05 06:34:33;;;;;;;8.30;6.23;;;;;;;11.16;89.58;95870.31;5057461;28;20201;-79
2022/05/05 06:36:59;;;;;;;7.07;6.37;;;;;;;11.23;89.64;95871.38;5040717;28;20170;-78
2022/05/05 06:39:24;;;;;;;7.33;6.10;;;;;;;11.40;87.26;95877.59;5040424;28;20174;-78
2022/05/05 06:41:49;;;;;;;9.30;6.63;;;;;;;11.29;87.48;95879.41;5023760;28;20541;-77
2022/05/05 06:44:14;;;;;;;7.53;6.30;;;;;;;11.32;87.80;95880.94;5038844;28;20198;-78
2022/05/05 06:46:40;;;;;;;10.37;6.20;;;;;;;11.31;87.79;95881.88;5040565;28;20202;-79
2022/05/05 06:49:05;;;;;;;9.20;6.23;;;;;;;11.32;88.40;95875.72;5022860;28;20174;-76
2022/05/05 06:51:30;;;;;;;8.27;6.60;;;;;;;11.38;89.09;95882.94;5025262;28;20671;-81
2022/05/05 06:53:56;;;;;;;8.10;6.57;;;;;;;11.44;89.04;95873.75;5027232;28;20189;-79
2022/05/05 06:56:24;;;;;;;10.90;6.83;;;;;;;11.46;89.01;95870.03;5043594;28;20182;-78
2022/05/05 06:58:49;;;;;;;10.00;8.17;;;;;;;11.55;88.64;95876.97;5027679;28;20543;-79
2022/05/05 07:06:42;;;;;;;10.60;9.50;;;;;;;11.67;88.02;95888.00;5046351;28;20208;-77
2022/05/05 07:11:52;;;;;;;11.03;9.93;;;;;;;11.79;88.79;95892.03;5044912;28;20181;-78
2022/05/05 07:14:18;;;;;;;12.20;11.00;;;;;;;11.67;89.11;95887.19;5039772;28;20754;-78
2022/05/05 07:16:43;;;;;;;11.83;10.63;;;;;;;11.84;88.54;95897.66;5041692;28;20209;-77
2022/05/05 07:19:09;;;;;;;14.30;11.07;;;;;;;11.67;89.41;95897.59;5043379;28;20265;-76
2022/05/05 07:21:36;;;;;;;12.53;11.17;;;;;;;11.77;88.86;95904.38;5044616;28;20170;-79
2022/05/05 07:24:02;;;;;;;12.97;11.50;;;;;;;11.99;88.87;95908.34;5044367;28;20243;-78
2022/05/05 07:26:27;;;;;;;12.10;10.37;;;;;;;12.23;88.02;95901.75;5028205;28;20198;-77
2022/05/05 07:28:52;;;;;;;12.93;10.23;;;;;;;11.99;89.51;95912.75;5027876;28;20189;-78
2022/05/05 07:31:18;;;;;;;12.17;10.97;;;;;;;12.11;89.16;95904.59;5061671;28;20173;-78
2022/05/05 07:33:43;;;;;;;15.20;11.47;;;;;;;12.42;89.31;95897.19;5026171;28;20174;-78
2022/05/05 07:36:08;;;;;;;15.33;11.73;;;;;;;12.53;87.92;95897.94;5045412;28;20174;-78
2022/05/05 07:38:35;;;;;;;12.93;11.53;;;;;;;12.94;87.75;95901.66;5029718;28;20178;-78
2022/05/05 07:41:00;;;;;;;14.43;11.60;;;;;;;13.30;83.32;95902.38;5029487;28;20182;-79
2022/05/05 07:43:25;;;;;;;14.57;12.77;;;;;;;13.22;84.90;95908.38;5027854;28;20189;-79
2022/05/05 07:45:51;;;;;;;13.10;11.57;;;;;;;13.68;82.76;95911.50;5027617;28;20206;-78
2022/05/05 07:48:16;;;;;;;12.43;11.13;;;;;;;13.74;81.99;95910.06;5044161;28;20190;-79
2022/05/05 07:50:42;;;;;;;16.00;14.17;;;;;;;13.59;83.38;95910.66;5044312;28;20228;-79
2022/05/05 07:53:07;;;;;;;17.17;13.87;;;;;;;13.87;80.75;95913.88;5043916;28;20252;-79
2022/05/05 07:55:32;;;;;;;16.13;14.53;;;;;;;13.69;81.70;95915.75;5027321;28;20217;-78
2022/05/05 07:57:58;;;;;;;18.23;14.70;;;;;;;13.92;81.31;95915.16;5026736;28;20217;-79
2022/05/05 08:00:23;;;;;;;15.33;13.83;;;;;;;13.85;81.23;95917.59;5044203;28;20185;-78
2022/05/05 08:02:48;;;;;;;16.57;14.10;;;;;;;13.91;81.87;95921.38;5026440;28;20182;-80
2022/05/05 08:05:14;;;;;;;16.53;14.70;;;;;;;13.92;79.21;95918.59;5041893;28;20697;-78
2022/05/05 08:07:41;;;;;;;17.93;16.03;;;;;;;14.01;79.81;95922.03;5043838;28;20191;-78
2022/05/05 08:10:07;;;;;;;17.60;15.60;;;;;;;13.64;80.58;95925.84;5043955;28;20178;-79
2022/05/05 08:12:32;;;;;;;19.07;14.77;;;;;;;13.56;81.91;95926.63;5042064;28;20482;-79
2022/05/05 08:14:59;;;;;;;16.33;14.57;;;;;;;13.71;81.16;95932.09;5027009;28;20575;-78
2022/05/05 08:17:24;;;;;;;19.17;16.23;;;;;;;13.62;80.56;95937.44;5044280;28;20169;-79
2022/05/05 08:19:49;;;;;;;16.20;14.53;;;;;;;13.70;81.68;95934.84;5043414;28;20719;-79
2022/05/05 08:22:15;;;;;;;16.63;14.47;;;;;;;13.51;80.96;95938.50;5043954;28;20227;-79
2022/05/05 08:30:08;;;;;;;16.67;14.23;;;;;;;13.38;83.14;95943.34;5040603;28;20189;-79
2022/05/05 08:32:34;;;;;;;15.70;14.13;;;;;;;13.60;83.55;95945.38;5022973;28;20185;-79
2022/05/05 08:35:00;;;;;;;17.83;15.23;;;;;;;13.78;82.86;95948.75;5023195;28;20575;-80
2022/05/05 08:37:25;;;;;;;17.03;15.23;;;;;;;13.67;80.89;95956.84;5040407;28;20166;-79
2022/05/05 08:39:50;;;;;;;17.30;15.50;;;;;;;13.72;80.52;95951.16;5040090;28;20170;-78
2022/05/05 08:42:16;;;;;;;17.20;15.43;;;;;;;13.40;82.37;95959.63;5038900;28;20184;-79
2022/05/05 08:44:41;;;;;;;18.10;16.20;;;;;;;13.18;82.47;95956.56;5038452;28;20198;-78
2022/05/05 08:47:09;;;;;;;17.33;15.53;;;;;;;13.11;82.91;95959.94;5032169;28;20201;-78
2022/05/05 08:49:35;;;;;;;18.57;15.93;;;;;;;13.15;81.81;95961.25;5028992;28;20537;-78
2022/05/05 08:52:03;;;;;;;16.77;14.87;;;;;;;12.93;82.29;95958.19;5044078;28;20185;-79
2022/05/05 08:54:31;;;;;;;17.20;15.50;;;;;;;12.77;83.38;95958.88;5058166;28;20193;-78
2022/05/05 08:56:57;;;;;;;18.67;16.87;;;;;;;12.81;84.26;95962.00;5055029;28;20256;-77
2022/05/05 08:59:22;;;;;;;19.80;16.23;;;;;;;12.77;84.06;95974.50;5043145;28;20177;-79
2022/05/05 09:01:48;;;;;;;20.30;15.90;;;;;;;12.73;82.83;95972.38;5036771;28;20688;-78
2022/05/05 09:04:14;;;;;;;16.93;15.30;;;;;;;12.67;84.04;95979.00;5043056;28;20201;-78
2022/05/05 09:06:51;;;;;;;19.13;16.03;;;;;;;12.59;83.72;95971.09;5060003;28;20588;-78
2022/05/05 09:09:27;;;;;;;18.83;15.90;;;;;;;12.42;85.68;95975.34;5043194;28;20180;-79
2022/05/05 09:12:08;;;;;;;18.40;16.43;;;;;;;12.45;85.01;95969.00;5042911;28;20219;-78
2022/05/05 09:14:37;;;;;;;18.87;16.67;;;;;;;12.31;85.84;95972.13;5058158;28;20201;-78
2022/05/05 09:17:07;;;;;;;18.20;15.33;;;;;;;12.33;83.93;95965.00;5042210;28;20548;-79
2022/05/05 09:19:41;;;;;;;19.83;15.77;;;;;;;12.24;84.70;95968.47;5059538;28;20254;-79
2022/05/05 09:22:08;;;;;;;19.17;16.00;;;;;;;12.15;85.22;95978.81;5059600;28;20181;-78
2022/05/05 09:24:36;;;;;;;19.53;16.30;;;;;;;12.37;84.93;95980.19;5044105;28;20656;-81
2022/05/05 09:27:23;;;;;;;19.20;14.77;;;;;;;12.55;85.51;95969.78;5043626;28;20763;-79
2022/05/05 09:30:08;;;;;;;18.03;15.87;;;;;;;12.53;86.53;95976.06;5061614;28;20218;-79
2022/05/05 09:32:39;;;;;;;18.20;16.23;;;;;;;12.79;86.56;95976.13;5034125;28;20192;-79
2022/05/05 09:35:12;;;;;;;23.13;18.53;;;;;;;12.71;86.52;95977.69;5044182;28;20670;-79
2022/05/05 09:37:42;;;;;;;23.30;19.63;;;;;;;12.51;87.10;95989.25;5059870;28;20173;-79
2022/05/05 09:40:08;;;;;;;23.10;18.60;;;;;;;12.71;87.01;95985.53;5059393;28;20177;-77
2022/05/05 09:42:43;;;;;;;23.70;19.70;;;;;;;12.93;86.22;95991.25;5076565;28;20549;-78
2022/05/05 09:45:21;;;;;;;24.53;20.93;;;;;;;13.08;87.66;95986.31;5040621;28;20274;-78
2022/05/05 09:47:50;;;;;;;29.03;22.87;;;;;;;13.07;87.73;95990.69;5059622;28;20311;-78
2022/05/05 09:50:19;;;;;;;30.40;24.40;;;;;;;12.98;85.34;95986.38;5059485;28;20181;-78
2022/05/05 09:58:15;;;;;;;30.37;25.50;;;;;;;13.24;87.32;95984.66;5062780;28;20219;-79
2022/05/05 10:00:44;;;;;;;31.20;27.93;;;;;;;13.10;86.72;95990.41;5059481;28;20230;-79
2022/05/05 10:05:56;;;;;;;35.53;27.60;;;;;;;12.97;85.86;95995.19;5063535;28;20235;-78
2022/05/05 10:08:37;;;;;;;30.50;25.63;;;;;;;12.91;83.53;96001.03;5043512;28;20173;-78
2022/05/05 10:11:06;;;;;;;29.87;25.33;;;;;;;12.86;85.35;95995.44;5060472;28;20474;-79
2022/05/05 10:13:35;;;;;;;31.50;27.50;;;;;;;12.75;85.67;96001.69;5043604;28;20211;-79
2022/05/05 10:16:00;;;;;;;30.17;25.23;;;;;;;12.83;85.85;95993.94;5043590;28;20197;-78
2022/05/05 10:18:27;;;;;;;31.23;27.43;;;;;;;12.67;86.35;95989.41;5040192;28;20291;-79
2022/05/05 10:20:54;;;;;;;34.33;26.37;;;;;;;12.73;86.80;95995.81;5042061;28;20169;-78
2022/05/05 10:23:33;;;;;;;30.90;26.33;;;;;;;12.58;88.10;96002.50;5076364;28;20177;-78
2022/05/05 10:25:58;;;;;;;33.07;29.20;;;;;;;12.37;88.66;95997.59;5060869;28;20200;-78
2022/05/05 10:28:44;;;;;;;38.40;28.73;;;;;;;12.32;90.54;95997.22;5057209;28;20185;-78
2022/05/05 10:31:11;;;;;;;32.60;28.60;;;;;;;12.21;90.89;95997.44;5047652;28;20209;-78
2022/05/05 10:34:06;;;;;;;34.43;28.23;;;;;;;12.39;90.17;96001.69;5047096;28;20180;-78
2022/05/05 10:36:31;;;;;;;34.00;29.03;;;;;;;12.18;90.92;96001.94;5046571;28;20670;-78
2022/05/05 10:38:57;;;;;;;34.27;30.63;;;;;;;12.08;91.58;96003.78;5064569;28;20188;-78
2022/05/05 10:41:34;;;;;;;36.67;31.10;;;;;;;11.81;93.48;95998.59;5046586;28;20188;-78
2022/05/05 10:44:15;;;;;;;33.83;30.20;;;;;;;12.02;93.70;96009.59;5046928;28;20216;-77
2022/05/05 10:46:57;;;;;;;37.67;32.33;;;;;;;12.10;93.09;95996.66;5082941;28;20212;-78
2022/05/05 10:49:37;;;;;;;37.03;31.43;;;;;;;11.99;93.40;96003.84;5018590;28;20181;-78
2022/05/05 10:52:11;;;;;;;33.20;29.03;;;;;;;12.26;92.65;96009.03;5056655;28;20184;-79
2022/05/05 10:54:45;;;;;;;39.80;32.07;;;;;;;12.36;92.65;96009.78;5062091;28;20201;-78
2022/05/05 10:57:26;;;;;;;34.13;30.20;;;;;;;12.56;90.62;96007.88;5048480;28;20211;-77
2022/05/05 11:00:12;;;;;;;34.40;30.20;;;;;;;12.84;89.68;95998.19;5063269;28;20199;-77
2022/05/05 11:02:40;;;;;;;34.57;30.37;;;;;;;13.04;88.62;96004.03;5046545;28;20212;-78
2022/05/05 11:05:28;;;;;;;37.53;31.40;;;;;;;13.06;89.04;96004.69;5061580;28;20198;-78
2022/05/05 11:07:54;;;;;;;33.47;29.37;;;;;;;12.98;89.12;96005.44;5063139;28;20181;-79
2022/05/05 11:10:41;;;;;;;35.27;29.77;;;;;;;13.29;89.26;96012.88;5062614;28;20594;-78
2022/05/05 11:13:07;;;;;;;34.23;30.53;;;;;;;13.73;87.44;96013.63;5079020;28;20177;-78
2022/05/05 11:21:35;;;;;;;33.03;29.50;;;;;;;13.78;83.78;96008.78;5063093;28;20200;-78
2022/05/05 11:24:01;;;;;;;33.13;29.60;;;;;;;13.60;84.17;96008.84;5045884;28;20185;-78
2022/05/05 11:26:27;;;;;;;36.27;31.10;;;;;;;13.01;87.11;96006.97;5038872;28;20620;-78
2022/05/05 11:28:53;;;;;;;31.67;27.53;;;;;;;13.58;83.67;96009.97;5043191;28;20177;-77
2022/05/05 11:31:27;;;;;;;33.77;28.37;;;;;;;13.58;82.47;96012.56;5032726;28;20180;-79
2022/05/05 11:33:56;;;;;;;31.10;27.83;;;;;;;13.75;82.60;96006.47;5059919;28;20577;-79
2022/05/05 11:36:37;;;;;;;30.43;27.23;;;;;;;13.19;83.19;96009.53;5045007;28;20199;-79
2022/05/05 11:39:03;;;;;;;33.87;27.70;;;;;;;13.22;83.40;96001.44;5061056;28;20658;-78
2022/05/05 11:41:29;;;;;;;31.97;28.73;;;;;;;13.05;84.72;96003.06;5044677;28;20249;-79
2022/05/05 11:46:38;;;;;;;37.13;30.07;;;;;;;12.95;84.75;96000.56;5052531;28;20244;-79
2022/05/05 11:49:04;;;;;;;32.83;29.27;;;;;;;12.94;86.40;95998.91;5059647;28;20512;-79
2022/05/05 11:51:31;;;;;;;32.97;28.27;;;;;;;13.07;87.04;95995.09;5061377;28;20182;-79
2022/05/05 11:54:07;;;;;;;32.07;28.77;;;;;;;13.13;86.41;95990.09;5060248;28;20181;-79
2022/05/05 11:56:35;;;;;;;31.33;28.10;;;;;;;13.15;85.12;95995.16;5061414;28;20199;-79
2022/05/05 12:02:12;;;;;;;31.13;27.77;;;;;;;13.33;83.67;95985.50;5078812;28;20618;-79
2022/05/05 12:04:42;;;;;;;30.40;27.33;;;;;;;13.48;83.16;95989.19;5057831;28;20208;-77
2022/05/05 12:07:09;;;;;;;32.60;26.40;;;;;;;13.52;83.45;95989.72;5028449;28;20215;-79
2022/05/05 12:09:36;;;;;;;30.43;27.33;;;;;;;13.72;81.99;95985.91;5060795;28;20178;-79
2022/05/05 12:12:09;;;;;;;29.70;26.60;;;;;;;13.87;81.95;95991.38;5045297;28;20185;-80
2022/05/05 12:14:46;;;;;;;29.00;26.03;;;;;;;13.93;80.63;95987.28;5048936;28;20204;-82
2022/05/05 12:17:18;;;;;;;33.27;29.67;;;;;;;14.24;80.19;95990.19;5042594;28;20169;-79